createdAt,value
2023-04-05T00:04:57.848Z,5.97
2023-04-05T00:07:30.070Z,5.90
2023-04-05T00:10:02.128Z,6.18
2023-04-05T00:15:09.269Z,4.70
2023-04-05T00:17:41.404Z,8.63
2023-04-05T00:20:13.742Z,7.03
2023-04-05T00:22:46.750Z,8.45
2023-04-05T00:25:19.078Z,8.88
2023-04-05T00:27:53.696Z,7.18
2023-04-05T00:30:25.746Z,6.88
2023-04-05T00:35:30.070Z,6.22
2023-04-05T00:38:02.551Z,5.90
2023-04-05T00:40:34.916Z,5.70
2023-04-05T00:43:09.583Z,7.00
2023-04-05T00:45:42.427Z,6.25
2023-04-05T00:48:14.804Z,7.93
2023-04-05T00:50:49.015Z,6.53
2023-04-05T00:53:22.189Z,5.05
2023-04-05T00:55:54.970Z,4.90
2023-04-05T00:58:29.944Z,6.07
2023-04-05T01:01:07.612Z,5.97
2023-04-05T01:03:44.953Z,6.47
2023-04-05T01:06:25.380Z,5.38
2023-04-05T01:09:06.783Z,5.68
2023-04-05T01:11:40.429Z,5.28
2023-04-05T01:14:15.129Z,7.45
2023-04-05T01:16:49.940Z,6.35
2023-04-05T01:19:22.014Z,7.10
2023-04-05T01:25:03.024Z,4.55
2023-04-05T01:27:46.049Z,4.35
2023-04-05T01:30:23.147Z,4.15
2023-04-05T01:33:02.893Z,5.13
2023-04-05T01:35:39.138Z,4.88
2023-04-05T01:38:12.781Z,6.25
2023-04-05T01:40:45.450Z,6.65
2023-04-05T01:43:18.637Z,5.28
2023-04-05T01:45:53.561Z,6.78
2023-04-05T01:48:25.958Z,4.72
2023-04-05T01:50:58.299Z,6.45
2023-04-05T01:53:30.812Z,5.05
2023-04-05T01:56:03.305Z,6.95
2023-04-05T01:58:36.005Z,4.68
2023-04-05T02:01:10.725Z,5.78
2023-04-05T02:03:42.887Z,8.98
2023-04-05T02:06:14.987Z,5.55
2023-04-05T02:08:47.047Z,6.75
2023-04-05T02:11:19.055Z,7.18
2023-04-05T02:13:51.087Z,4.68
2023-04-05T02:16:27.382Z,5.68
2023-04-05T02:19:00.021Z,5.85
2023-04-05T02:21:32.138Z,8.20
2023-04-05T02:26:37.017Z,9.48
2023-04-05T02:29:09.047Z,5.88
2023-04-05T02:31:43.771Z,7.43
2023-04-05T02:34:16.244Z,4.65
2023-04-05T02:36:49.546Z,7.82
2023-04-05T02:39:21.716Z,4.40
2023-04-05T02:44:25.985Z,5.05
2023-04-05T02:47:00.830Z,5.20
2023-04-05T02:49:33.053Z,5.03
2023-04-05T02:52:05.377Z,6.97
2023-04-05T02:54:37.466Z,7.00
2023-04-05T02:57:12.442Z,6.35
2023-04-05T02:59:45.364Z,5.90
2023-04-05T03:02:20.004Z,8.63
2023-04-05T03:04:53.654Z,6.40
2023-04-05T03:07:25.990Z,7.53
2023-04-05T03:09:58.429Z,6.45
2023-04-05T03:12:30.812Z,5.72
2023-04-05T03:15:02.894Z,5.90
2023-04-05T03:17:37.607Z,6.03
2023-04-05T03:20:11.141Z,6.18
2023-04-05T03:22:43.278Z,5.45
2023-04-05T03:27:48.396Z,4.40
2023-04-05T03:30:21.062Z,3.95
2023-04-05T03:32:57.472Z,4.13
2023-04-05T03:35:29.936Z,4.60
2023-04-05T03:38:02.047Z,7.18
2023-04-05T03:40:34.177Z,3.80
2023-04-05T04:13:41.844Z,8.10
2023-04-05T04:16:14.095Z,6.00
2023-04-05T04:18:48.920Z,6.93
2023-04-05T04:21:24.999Z,8.07
2023-04-05T04:23:57.809Z,8.80
2023-04-05T04:26:29.917Z,8.90
2023-04-05T04:29:03.486Z,7.30
2023-04-05T04:31:35.962Z,8.43
2023-04-05T04:34:10.764Z,7.25
2023-04-05T04:36:43.144Z,10.13
2023-04-05T04:39:16.231Z,6.88
2023-04-05T04:41:49.080Z,7.57
2023-04-05T04:44:28.309Z,5.63
2023-04-05T04:47:00.383Z,6.38
2023-04-05T04:49:35.105Z,5.60
2023-04-05T04:52:07.449Z,9.38
2023-04-05T04:54:42.732Z,7.07
2023-04-05T04:57:14.949Z,8.52
2023-04-05T05:02:23.193Z,7.45
2023-04-05T05:04:57.837Z,9.30
2023-04-05T05:07:29.984Z,7.30
2023-04-05T05:10:02.184Z,6.88
2023-04-05T05:15:07.768Z,4.65
2023-04-05T05:17:39.979Z,5.00
2023-04-05T05:20:15.065Z,7.18
2023-04-05T05:22:47.230Z,6.82
2023-04-05T05:27:51.565Z,7.25
2023-04-05T05:30:23.650Z,6.80
2023-04-05T05:32:57.478Z,7.03
2023-04-05T05:35:32.423Z,9.88
2023-04-05T05:38:06.270Z,8.25
2023-04-05T05:40:39.974Z,9.02
2023-04-05T05:43:12.343Z,7.13
2023-04-05T05:45:44.409Z,7.40
2023-04-05T05:48:16.711Z,9.20
2023-04-05T05:50:51.532Z,10.40
2023-04-05T05:53:23.762Z,9.65
2023-04-05T05:58:28.929Z,4.93
2023-04-05T06:01:03.806Z,5.70
2023-04-05T06:03:36.038Z,5.30
2023-04-05T06:06:11.388Z,7.22
2023-04-05T06:08:43.691Z,6.85
2023-04-05T06:11:19.519Z,6.55
2023-04-05T06:13:52.732Z,6.85
2023-04-05T06:16:24.909Z,7.28
2023-04-05T06:18:57.533Z,8.32
2023-04-05T06:21:32.413Z,7.18
2023-04-05T06:24:05.242Z,7.07
2023-04-05T06:26:37.312Z,6.78
2023-04-05T06:29:09.409Z,6.45
2023-04-05T06:31:42.818Z,5.50
2023-04-05T06:34:15.128Z,10.35
2023-04-05T06:36:50.226Z,10.05
2023-04-05T06:39:22.602Z,8.27
2023-04-05T06:41:54.637Z,7.82
2023-04-05T06:44:26.677Z,6.28
2023-04-05T06:46:58.824Z,5.03
2023-04-05T06:52:06.866Z,4.05
2023-04-05T06:54:39.778Z,5.50
2023-04-05T06:57:11.895Z,6.53
2023-04-05T07:02:16.031Z,6.45
2023-04-05T07:04:49.128Z,5.53
2023-04-05T07:07:23.959Z,5.32
2023-04-05T07:09:56.047Z,5.60
2023-04-05T07:15:00.556Z,4.85
2023-04-05T07:17:32.807Z,7.20
2023-04-05T07:20:07.229Z,7.60
2023-04-05T07:22:41.904Z,6.57
2023-04-05T07:25:14.100Z,6.47
2023-04-05T07:27:46.204Z,5.55
2023-04-05T07:32:50.280Z,6.30
2023-04-05T07:37:57.161Z,5.63
2023-04-05T07:40:29.372Z,6.47
2023-04-05T07:45:33.467Z,5.43
2023-04-05T07:50:39.991Z,5.97
2023-04-05T07:53:15.336Z,5.25
2023-04-05T07:55:47.438Z,6.55
2023-04-05T08:00:53.444Z,5.78
2023-04-05T08:05:58.427Z,6.68
2023-04-05T08:08:33.689Z,5.45
2023-04-05T08:11:05.913Z,4.75
2023-04-05T08:13:41.635Z,6.15
2023-04-05T08:16:13.736Z,6.30
2023-04-05T08:18:45.960Z,6.97
2023-04-05T08:21:18.052Z,6.43
2023-04-05T08:26:24.926Z,6.50
2023-04-05T08:28:57.074Z,6.18
2023-04-05T08:31:29.535Z,9.18
2023-04-05T08:34:01.763Z,8.30
2023-04-05T08:36:33.965Z,6.68
2023-04-05T08:39:08.608Z,6.43
2023-04-05T08:41:45.973Z,7.20
2023-04-05T08:44:21.111Z,6.88
2023-04-05T08:46:55.942Z,5.23
2023-04-05T08:49:28.441Z,6.95
2023-04-05T08:52:01.747Z,8.10
2023-04-05T08:54:36.475Z,8.00
2023-04-05T08:57:09.643Z,6.90
2023-04-05T08:59:44.618Z,6.95
2023-04-05T09:02:19.327Z,6.97
2023-04-05T09:04:52.748Z,6.20
2023-04-05T09:07:27.526Z,8.45
2023-04-05T09:10:03.206Z,6.80
2023-04-05T09:12:36.134Z,9.77
2023-04-05T09:15:09.081Z,10.07
2023-04-05T09:17:43.598Z,6.45
2023-04-05T09:20:15.830Z,6.95
2023-04-05T09:22:48.235Z,6.22
2023-04-05T09:25:39.510Z,6.65
2023-04-05T09:28:12.580Z,6.63
2023-04-05T09:30:47.264Z,5.13
2023-04-05T09:33:21.109Z,7.95
2023-04-05T09:35:56.032Z,7.45
2023-04-05T09:38:43.701Z,8.70
2023-04-05T09:41:18.356Z,6.25
2023-04-05T09:43:53.210Z,7.47
2023-04-05T09:46:34.177Z,6.55
2023-04-05T09:49:09.578Z,7.10
2023-04-05T09:51:41.757Z,6.40
2023-04-05T09:54:13.858Z,7.65
2023-04-05T09:56:57.754Z,6.38
2023-04-05T09:59:30.552Z,6.35
2023-04-05T10:02:04.135Z,7.25
2023-04-05T10:04:40.111Z,5.35
2023-04-05T10:07:14.150Z,6.05
2023-04-05T10:09:47.798Z,8.27
2023-04-05T10:12:27.134Z,4.88
2023-04-05T10:14:59.887Z,6.72
2023-04-05T10:17:39.092Z,6.63
2023-04-05T10:20:17.214Z,5.93
2023-04-05T10:25:44.930Z,4.82
2023-04-05T10:28:32.298Z,5.78
2023-04-05T10:31:30.356Z,5.88
2023-04-05T10:39:26.540Z,7.35
2023-04-05T10:42:01.791Z,5.68
2023-04-05T10:44:37.532Z,5.53
2023-04-05T10:47:14.407Z,7.60
2023-04-05T10:49:49.412Z,6.30
2023-04-05T10:52:22.833Z,6.22
2023-04-05T10:54:59.185Z,6.55
2023-04-05T10:57:31.891Z,8.00
2023-04-05T11:00:09.154Z,4.93
2023-04-05T11:02:41.793Z,6.00
2023-04-05T11:08:05.587Z,6.10
2023-04-05T11:10:39.784Z,6.18
2023-04-05T11:13:12.273Z,6.30
2023-04-05T11:15:47.068Z,5.78
2023-04-05T11:18:22.590Z,6.13
2023-04-05T11:21:07.572Z,6.90
2023-04-05T11:24:01.504Z,4.97
2023-04-05T11:26:54.663Z,5.88
2023-04-05T11:29:49.749Z,5.43
2023-04-05T11:32:37.829Z,5.15
2023-04-05T11:35:14.596Z,5.72
2023-04-05T11:38:10.501Z,5.18
2023-04-05T11:40:43.860Z,10.00
2023-04-05T11:43:16.187Z,8.32
2023-04-05T11:45:48.950Z,5.80
2023-04-05T11:48:23.641Z,7.45
2023-04-05T11:50:57.357Z,7.30
2023-04-05T11:53:29.442Z,8.13
2023-04-05T11:56:09.179Z,7.88
2023-04-05T11:58:41.793Z,6.80
2023-04-05T12:01:13.888Z,7.13
2023-04-05T12:03:53.863Z,6.20
2023-04-05T12:06:26.649Z,5.65
2023-04-05T12:08:58.741Z,4.82
2023-04-05T12:11:33.408Z,6.63
2023-04-05T12:14:05.455Z,5.45
2023-04-05T12:16:48.649Z,5.55
2023-04-05T12:19:23.499Z,4.43
2023-04-05T12:21:55.615Z,6.82
2023-04-05T12:24:27.734Z,7.60
2023-04-05T12:27:01.261Z,6.30
2023-04-05T12:29:33.934Z,6.75
2023-04-05T12:32:06.387Z,5.78
2023-04-05T12:34:48.290Z,6.95
2023-04-05T12:37:20.655Z,6.32
2023-04-05T12:39:54.895Z,6.53
2023-04-05T12:42:33.134Z,5.22
2023-04-05T12:45:07.666Z,6.95
2023-04-05T12:47:51.005Z,4.82
2023-04-05T12:50:29.735Z,6.97
2023-04-05T12:53:06.314Z,6.78
2023-04-05T12:55:45.993Z,6.15
2023-04-05T12:58:18.827Z,5.20
2023-04-05T13:00:50.944Z,7.60
2023-04-05T13:03:25.892Z,4.75
2023-04-05T13:06:00.686Z,4.97
2023-04-05T13:08:35.773Z,6.10
2023-04-05T13:11:07.865Z,5.82
2023-04-05T13:13:40.005Z,7.00
2023-04-05T13:16:12.073Z,5.03
2023-04-05T13:18:44.644Z,5.60
2023-04-05T13:21:19.325Z,5.82
2023-04-05T13:23:51.406Z,5.47
2023-04-05T13:26:23.696Z,5.38
2023-04-05T13:28:55.791Z,4.45
2023-04-05T13:31:27.975Z,4.90
2023-04-05T13:34:00.521Z,5.18
2023-04-05T13:36:35.485Z,5.10
2023-04-05T13:39:07.878Z,5.15
2023-04-05T13:41:40.297Z,5.53
2023-04-05T13:44:12.386Z,5.18
2023-04-05T13:46:44.548Z,5.32
2023-04-05T13:49:16.729Z,5.88
2023-04-05T13:51:51.419Z,4.78
2023-04-05T13:54:23.495Z,6.05
2023-04-05T13:56:56.506Z,6.15
2023-04-05T13:59:28.686Z,5.30
2023-04-05T14:02:00.987Z,5.07
2023-04-05T14:04:33.171Z,5.72
2023-04-05T14:07:08.396Z,6.13
2023-04-05T14:09:40.627Z,5.15
2023-04-05T14:12:14.154Z,5.32
2023-04-05T14:14:46.915Z,6.63
2023-04-05T14:17:19.155Z,5.10
2023-04-05T14:19:51.301Z,5.45
2023-04-05T14:22:26.068Z,4.75
2023-04-05T14:24:58.178Z,6.05
2023-04-05T14:27:30.443Z,5.07
2023-04-05T14:30:02.674Z,6.78
2023-04-05T14:32:34.958Z,4.60
2023-04-05T14:35:08.589Z,4.82
2023-04-05T14:37:43.295Z,6.40
2023-04-05T14:40:15.695Z,6.10
2023-04-05T14:42:50.258Z,4.60
2023-04-05T14:45:23.523Z,4.97
2023-04-05T14:47:56.227Z,5.25
2023-04-05T14:50:32.434Z,4.38
2023-04-05T14:53:07.366Z,5.88
2023-04-05T14:55:40.778Z,4.25
2023-04-05T14:58:14.448Z,5.03
2023-04-05T15:00:49.931Z,4.97
2023-04-05T15:03:22.266Z,5.63
2023-04-05T15:05:54.711Z,5.10
2023-04-05T15:08:29.718Z,5.82
2023-04-05T15:11:01.955Z,6.35
2023-04-05T15:13:34.366Z,5.05
2023-04-05T15:16:06.648Z,5.18
2023-04-05T15:18:39.002Z,6.32
2023-04-05T15:21:11.257Z,6.07
2023-04-05T15:23:46.807Z,5.63
2023-04-05T15:26:18.909Z,5.55
2023-04-05T15:28:51.173Z,5.18
2023-04-05T15:31:23.333Z,5.15
2023-04-05T15:33:55.476Z,5.60
2023-04-05T15:36:28.400Z,3.97
2023-04-05T15:39:05.283Z,4.97
2023-04-05T15:41:37.610Z,4.85
2023-04-05T15:44:09.893Z,6.22
2023-04-05T15:46:42.611Z,5.05
2023-04-05T15:49:16.927Z,5.93
2023-04-05T15:51:49.683Z,4.63
2023-04-05T15:54:24.324Z,6.28
2023-04-05T15:56:57.096Z,4.93
2023-04-05T15:59:29.266Z,8.73
2023-04-05T16:02:01.506Z,11.18
2023-04-05T16:04:33.562Z,5.07
2023-04-05T16:07:06.823Z,5.25
2023-04-05T16:09:41.509Z,5.93
2023-04-05T16:12:13.682Z,4.40
2023-04-05T16:14:45.788Z,6.38
2023-04-05T16:17:18.031Z,4.70
2023-04-05T16:19:50.181Z,5.22
2023-04-05T16:22:22.609Z,5.60
2023-04-05T16:24:57.231Z,5.35
2023-04-05T16:27:29.318Z,4.68
2023-04-05T16:30:01.425Z,6.13
2023-04-05T16:32:33.533Z,4.78
2023-04-05T16:35:06.595Z,4.35
2023-04-05T16:37:39.045Z,4.53
2023-04-05T16:40:13.994Z,4.93
2023-04-05T16:42:46.050Z,4.53
2023-04-05T16:45:18.254Z,5.57
2023-04-05T16:47:50.563Z,5.22
2023-04-05T16:50:22.736Z,4.53
2023-04-05T16:52:54.949Z,3.90
2023-04-05T16:55:29.622Z,4.00
2023-04-05T16:58:01.747Z,5.65
2023-04-05T17:00:33.844Z,4.65
2023-04-05T17:03:06.182Z,5.03
2023-04-05T17:05:38.507Z,6.00
2023-04-05T17:08:12.769Z,5.05
2023-04-05T17:10:47.740Z,3.72
2023-04-05T17:13:19.907Z,5.20
2023-04-05T17:15:52.010Z,3.38
2023-04-05T17:18:24.150Z,5.55
2023-04-05T17:20:56.469Z,4.43
2023-04-05T17:23:28.724Z,5.40
2023-04-05T17:26:03.578Z,7.28
2023-04-05T17:28:35.910Z,3.83
2023-04-05T17:31:08.152Z,6.45
2023-04-05T17:33:40.852Z,4.88
2023-04-05T17:36:13.033Z,3.80
2023-04-05T17:38:45.910Z,3.45
2023-04-05T17:41:20.664Z,4.38
2023-04-05T17:43:54.111Z,4.15
2023-04-05T17:46:39.672Z,3.97
2023-04-05T17:49:15.080Z,8.88
2023-04-05T17:51:47.531Z,4.63
2023-04-05T17:54:19.682Z,5.55
2023-04-05T17:56:54.330Z,5.50
2023-04-05T17:59:26.457Z,4.93
2023-04-05T18:01:58.646Z,4.80
2023-04-05T18:04:31.125Z,6.13
2023-04-05T18:07:03.204Z,4.57
2023-04-05T18:09:36.401Z,4.65
2023-04-05T18:12:11.115Z,3.45
2023-04-05T18:14:43.276Z,5.05
2023-04-05T18:17:15.506Z,5.40
2023-04-05T18:19:49.521Z,4.88
2023-04-05T18:22:21.748Z,5.00
2023-04-05T18:24:53.817Z,5.18
2023-04-05T18:27:29.088Z,5.32
2023-04-05T18:30:01.352Z,5.28
2023-04-05T18:32:33.480Z,5.25
2023-04-05T18:35:06.927Z,4.45
2023-04-05T18:37:40.253Z,4.55
2023-04-05T18:40:13.467Z,6.07
2023-04-05T18:42:48.110Z,6.43
2023-04-05T18:45:20.801Z,6.18
2023-04-05T18:47:52.895Z,5.85
2023-04-05T18:50:24.986Z,6.70
2023-04-05T18:52:57.165Z,8.02
2023-04-05T18:55:29.235Z,7.05
2023-04-05T18:58:03.912Z,8.30
2023-04-05T19:00:36.175Z,5.03
2023-04-05T19:03:08.500Z,6.90
2023-04-05T19:05:40.808Z,6.28
2023-04-05T19:08:12.862Z,7.38
2023-04-05T19:10:44.966Z,8.27
2023-04-05T19:13:19.652Z,8.30
2023-04-05T19:15:51.744Z,8.05
2023-04-05T19:18:27.787Z,7.65
2023-04-05T19:21:01.307Z,6.90
2023-04-05T19:23:33.410Z,7.57
2023-04-05T19:26:05.777Z,8.13
2023-04-05T19:28:40.421Z,6.85
2023-04-05T19:31:12.938Z,9.65
2023-04-05T19:33:45.086Z,6.43
2023-04-05T19:36:17.277Z,9.57
2023-04-05T19:38:52.009Z,15.70
2023-04-05T19:41:25.412Z,18.20
2023-04-05T19:44:00.482Z,15.98
2023-04-05T19:46:33.897Z,14.18
2023-04-05T19:49:09.175Z,8.85
2023-04-05T19:51:42.548Z,10.15
2023-04-05T19:54:15.156Z,8.68
2023-04-05T19:56:47.366Z,14.88
2023-04-05T19:59:32.255Z,10.32
2023-04-05T20:02:14.420Z,12.50
2023-04-05T20:04:46.496Z,12.40
2023-04-05T20:07:18.557Z,12.70
2023-04-05T20:09:50.838Z,13.63
2023-04-05T20:12:23.478Z,13.52
2023-04-05T20:14:58.123Z,11.75
2023-04-05T20:17:30.228Z,8.68
2023-04-05T20:20:02.457Z,7.38
2023-04-05T20:22:34.587Z,11.68
2023-04-05T20:25:38.002Z,7.82
2023-04-05T20:28:43.321Z,9.25
2023-04-05T20:31:21.174Z,8.10
2023-04-05T20:33:54.338Z,8.65
2023-04-05T20:36:32.421Z,8.73
2023-04-05T20:39:06.474Z,6.10
2023-04-05T20:41:38.958Z,7.82
2023-04-05T20:44:11.347Z,6.80
2023-04-05T20:46:46.776Z,10.43
2023-04-05T20:49:18.884Z,10.27
2023-04-05T20:51:51.088Z,9.23
2023-04-05T20:54:24.015Z,6.78
2023-04-05T20:56:56.094Z,7.85
2023-04-05T20:59:28.159Z,10.13
2023-04-05T21:02:02.898Z,7.15
2023-04-05T21:04:35.068Z,7.30
2023-04-05T21:07:07.181Z,10.25
2023-04-05T21:09:39.251Z,10.57
2023-04-05T21:12:11.442Z,9.25
2023-04-05T21:14:43.492Z,10.65
2023-04-05T21:17:18.270Z,9.68
2023-04-05T21:19:50.728Z,9.98
2023-04-05T21:22:22.915Z,8.50
2023-04-05T21:24:55.000Z,12.00
2023-04-05T21:27:27.577Z,10.50
2023-04-05T21:29:59.681Z,13.80
2023-04-05T21:32:34.581Z,9.55
2023-04-05T21:35:07.488Z,8.32
2023-04-05T21:37:39.542Z,7.63
2023-04-05T21:40:12.544Z,9.10
2023-04-05T21:42:44.724Z,11.75
2023-04-05T21:45:16.824Z,8.32
2023-04-05T21:47:51.681Z,8.07
2023-04-05T21:50:24.594Z,9.85
2023-04-05T21:52:56.712Z,14.93
2023-04-05T21:55:28.800Z,12.27
2023-04-05T21:58:01.138Z,14.05
2023-04-05T22:00:33.316Z,12.25
2023-04-05T22:03:08.370Z,10.93
2023-04-05T22:05:40.458Z,10.60
2023-04-05T22:08:12.532Z,11.35
2023-04-05T22:10:44.633Z,10.82
2023-04-05T22:13:17.219Z,12.68
2023-04-05T22:15:49.795Z,10.35
2023-04-05T22:18:25.725Z,11.50
2023-04-05T22:20:57.890Z,11.15
2023-04-05T22:23:32.076Z,11.90
2023-04-05T22:26:06.820Z,10.27
2023-04-05T22:28:38.966Z,12.32
2023-04-05T22:31:11.085Z,10.45
2023-04-05T22:33:45.813Z,10.35
2023-04-05T22:36:17.904Z,9.63
2023-04-05T22:38:51.675Z,8.75
2023-04-05T22:41:25.750Z,9.63
2023-04-05T22:43:57.800Z,10.20
2023-04-05T22:46:30.033Z,10.32
2023-04-05T22:49:04.797Z,12.70
2023-04-05T22:51:37.062Z,10.55
2023-04-05T22:54:09.150Z,8.35
2023-04-05T22:56:41.299Z,10.45
2023-04-05T22:59:13.418Z,6.68
2023-04-05T23:01:45.679Z,9.00
2023-04-05T23:04:20.862Z,8.10
2023-04-05T23:06:53.278Z,9.13
2023-04-05T23:09:25.398Z,7.40
2023-04-05T23:11:57.486Z,7.32
2023-04-05T23:14:29.556Z,8.30
2023-04-05T23:19:36.279Z,7.70
2023-04-05T23:22:09.324Z,7.75
2023-04-05T23:24:41.370Z,8.85
2023-04-05T23:29:45.378Z,10.55
2023-04-05T23:32:17.420Z,9.57
2023-04-05T23:37:24.820Z,10.50
2023-04-05T23:39:56.879Z,9.45
2023-04-05T23:45:03.073Z,7.95
2023-04-05T23:47:35.226Z,7.82
